Time;durP1;ratioP1;P1;durP2;ratioP2;P2;SDS_P1;SDS_P2;PMS_P1;PMS_P2;Temp;Humidity;BMP_temperature;BMP_pressure;BME280_temperature;BME280_humidity;BME280_pressure;Samples;Min_cycle;Max_cycle;Signal;HPM_P1;HPM_P2
2021/07/02 00:00:00;;;;;;;31.60;18.48;;;15.20;99.90;;;;;;5107129;28;20020;-86
2021/07/02 00:02:26;;;;;;;34.63;19.40;;;15.20;99.90;;;;;;5107516;28;20023;-86
2021/07/02 00:04:52;;;;;;;31.80;18.60;;;15.30;99.90;;;;;;5107225;28;20484;-86
2021/07/02 00:07:17;;;;;;;35.60;19.73;;;15.30;99.90;;;;;;5107498;28;20445;-86
2021/07/02 00:09:43;;;;;;;31.42;17.92;;;15.30;99.90;;;;;;5107163;28;20039;-87
2021/07/02 00:12:09;;;;;;;32.10;18.23;;;15.30;99.90;;;;;;5107406;28;20380;-84
2021/07/02 00:14:34;;;;;;;31.67;19.80;;;15.30;99.90;;;;;;5107266;28;20039;-84
2021/07/02 00:17:00;;;;;;;31.15;18.90;;;15.30;99.90;;;;;;5098617;28;20031;-84
2021/07/02 00:19:26;;;;;;;31.10;18.30;;;15.30;99.90;;;;;;5093329;28;20024;-84
2021/07/02 00:21:52;;;;;;;31.98;19.05;;;15.30;99.90;;;;;;5093657;28;20028;-84
2021/07/02 00:24:18;;;;;;;31.75;19.17;;;15.30;99.90;;;;;;5095380;28;20039;-83
2021/07/02 00:26:43;;;;;;;30.00;17.67;;;15.30;99.90;;;;;;5094746;28;20031;-83
2021/07/02 00:29:09;;;;;;;30.63;18.38;;;15.30;99.90;;;;;;5092856;28;20531;-83
2021/07/02 00:31:35;;;;;;;31.65;18.70;;;15.40;99.90;;;;;;5093391;28;20107;-83
2021/07/02 00:34:01;;;;;;;31.75;19.15;;;15.40;99.90;;;;;;5093621;28;20034;-83
2021/07/02 00:36:26;;;;;;;34.38;19.25;;;15.30;99.90;;;;;;5093170;28;20494;-83
2021/07/02 00:38:53;;;;;;;30.25;18.90;;;15.30;99.90;;;;;;5092992;28;20020;-83
2021/07/02 00:41:18;;;;;;;29.70;18.58;;;15.40;99.90;;;;;;5093211;28;20084;-83
2021/07/02 00:43:54;;;;;;;30.65;18.90;;;15.30;99.90;;;;;;5094568;28;20028;-83
2021/07/02 00:46:20;;;;;;;31.52;18.80;;;15.40;99.90;;;;;;5093129;28;20080;-85
2021/07/02 00:48:46;;;;;;;31.85;18.77;;;15.30;99.90;;;;;;5094221;28;20028;-85
2021/07/02 00:51:12;;;;;;;29.00;17.35;;;15.30;99.90;;;;;;5093838;28;20101;-82
2021/07/02 00:53:43;;;;;;;34.17;18.92;;;15.30;99.90;;;;;;5092998;28;20032;-83
2021/07/02 00:56:18;;;;;;;32.65;18.50;;;15.40;99.90;;;;;;5092779;28;20039;-86
2021/07/02 00:58:44;;;;;;;30.67;18.42;;;15.30;99.90;;;;;;5094221;28;20107;-85
2021/07/02 01:01:14;;;;;;;38.10;20.13;;;15.30;99.90;;;;;;5092285;28;20020;-85
2021/07/02 01:03:41;;;;;;;34.38;18.48;;;15.30;99.90;;;;;;5092741;28;20494;-86
2021/07/02 01:06:06;;;;;;;29.77;18.08;;;15.30;99.90;;;;;;5092623;28;20062;-86
2021/07/02 01:08:32;;;;;;;35.97;19.25;;;15.30;99.90;;;;;;5092986;28;20032;-85
2021/07/02 01:10:58;;;;;;;38.47;20.23;;;15.30;99.90;;;;;;5092222;28;20031;-85
2021/07/02 01:13:23;;;;;;;32.53;19.13;;;15.30;99.90;;;;;;5092477;28;20024;-86
2021/07/02 01:15:55;;;;;;;38.67;20.30;;;15.30;99.90;;;;;;5093606;28;20082;-86
2021/07/02 01:18:24;;;;;;;34.00;19.38;;;15.30;99.90;;;;;;5093742;28;20032;-86
2021/07/02 01:20:51;;;;;;;;;;;15.30;99.90;;;;;;5092252;28;20035;-86
2021/07/02 01:23:17;;;;;;;30.75;17.92;;;15.30;99.90;;;;;;5093559;28;19930;-85
2021/07/02 01:25:44;;;;;;;38.97;19.85;;;15.30;99.90;;;;;;5093674;28;20024;-86
2021/07/02 01:28:10;;;;;;;36.20;18.50;;;15.30;99.90;;;;;;5091374;28;20024;-86
2021/07/02 01:30:36;;;;;;;34.90;19.55;;;15.30;99.90;;;;;;5091714;28;20031;-86
2021/07/02 01:33:02;;;;;;;27.75;18.08;;;15.30;99.90;;;;;;5093379;28;20028;-85
2021/07/02 01:35:28;;;;;;;33.95;19.15;;;15.30;99.90;;;;;;5091851;28;20031;-86
2021/07/02 01:37:53;;;;;;;35.35;19.85;;;15.30;99.90;;;;;;5092138;28;20024;-86
2021/07/02 01:40:19;;;;;;;29.92;17.70;;;15.30;99.90;;;;;;5091359;28;20024;-85
2021/07/02 01:42:45;;;;;;;31.75;18.42;;;15.30;99.90;;;;;;5093291;28;20020;-85
2021/07/02 01:45:11;;;;;;;33.22;18.52;;;15.30;99.90;;;;;;5091879;28;20031;-86
2021/07/02 01:47:37;;;;;;;36.97;20.33;;;15.20;99.90;;;;;;5091796;28;20028;-85
2021/07/02 01:50:05;;;;;;;31.35;18.67;;;15.20;99.90;;;;;;5092554;28;20028;-86
2021/07/02 01:52:30;;;;;;;32.75;19.27;;;15.20;99.90;;;;;;5091839;28;20055;-86
2021/07/02 01:54:56;;;;;;;36.67;20.40;;;15.20;99.90;;;;;;5092966;28;20063;-86
2021/07/02 01:57:27;;;;;;;40.50;20.35;;;15.20;99.90;;;;;;5093128;28;20023;-86
2021/07/02 01:59:54;;;;;;;34.03;18.95;;;15.20;99.90;;;;;;5090970;28;20065;-85
2021/07/02 02:02:21;;;;;;;33.10;18.33;;;15.20;99.90;;;;;;5092725;28;20066;-86
2021/07/02 02:04:47;;;;;;;30.73;18.25;;;15.20;99.90;;;;;;5091439;28;20028;-86
2021/07/02 02:07:13;;;;;;;33.00;18.58;;;15.20;99.90;;;;;;5091606;28;20032;-86
2021/07/02 02:09:39;;;;;;;34.35;18.80;;;15.20;99.90;;;;;;5090877;28;20518;-86
2021/07/02 02:12:05;;;;;;;33.50;17.60;;;15.20;99.90;;;;;;5091382;28;20031;-85
2021/07/02 02:14:31;;;;;;;34.47;17.77;;;15.20;99.90;;;;;;5091320;28;20024;-85
2021/07/02 02:16:57;;;;;;;28.63;17.45;;;15.20;99.90;;;;;;5091320;28;20050;-85
2021/07/02 02:19:23;;;;;;;31.17;17.70;;;15.20;99.90;;;;;;5092056;28;20024;-85
2021/07/02 02:21:50;;;;;;;27.77;15.80;;;15.20;99.90;;;;;;5092430;28;20427;-85
2021/07/02 02:24:15;;;;;;;31.08;17.80;;;15.20;99.90;;;;;;5092488;28;20085;-85
2021/07/02 02:26:41;;;;;;;28.77;16.67;;;15.20;99.90;;;;;;5092545;28;20141;-85
2021/07/02 02:29:07;;;;;;;32.08;17.88;;;15.20;99.90;;;;;;5090610;28;20380;-86
2021/07/02 02:31:33;;;;;;;29.33;17.45;;;15.20;99.90;;;;;;5091043;28;20016;-86
2021/07/02 02:33:59;;;;;;;34.88;17.50;;;15.20;99.90;;;;;;5091293;28;20052;-86
2021/07/02 02:36:25;;;;;;;30.38;17.17;;;15.20;99.90;;;;;;5090945;28;20035;-85
2021/07/02 02:38:50;;;;;;;30.23;17.60;;;15.20;99.90;;;;;;5091855;28;20480;-85
2021/07/02 02:41:16;;;;;;;32.47;17.67;;;15.20;99.90;;;;;;5090651;28;20480;-85
2021/07/02 02:43:42;;;;;;;27.67;16.38;;;15.20;99.90;;;;;;5091004;28;20023;-86
2021/07/02 02:46:07;;;;;;;33.45;16.88;;;15.20;99.90;;;;;;5090779;28;20043;-85
2021/07/02 02:48:33;;;;;;;28.88;15.43;;;15.20;99.90;;;;;;5090921;28;20024;-85
2021/07/02 02:50:59;;;;;;;33.33;16.80;;;15.10;99.90;;;;;;5090251;28;20028;-86
2021/07/02 02:53:25;;;;;;;29.70;17.10;;;15.20;99.90;;;;;;5090247;28;20392;-85
2021/07/02 02:55:51;;;;;;;26.92;15.80;;;15.20;99.90;;;;;;5089606;28;20036;-86
2021/07/02 02:58:16;;;;;;;29.58;16.98;;;15.20;99.90;;;;;;5091928;28;20095;-85
2021/07/02 03:00:42;;;;;;;31.80;16.67;;;15.20;99.90;;;;;;5090241;28;20057;-85
2021/07/02 03:03:08;;;;;;;27.60;16.52;;;15.20;99.90;;;;;;5091991;28;20388;-86
2021/07/02 03:05:34;;;;;;;29.00;17.67;;;15.20;99.90;;;;;;5091841;28;20032;-86
2021/07/02 03:07:59;;;;;;;29.38;16.45;;;15.10;99.90;;;;;;5090686;28;20438;-84
2021/07/02 03:10:25;;;;;;;28.50;17.00;;;15.20;99.90;;;;;;5090069;28;20035;-83
2021/07/02 03:12:51;;;;;;;29.40;16.95;;;15.20;99.90;;;;;;5090584;28;20028;-83
2021/07/02 03:15:17;;;;;;;26.90;17.02;;;15.20;99.90;;;;;;5090342;28;20055;-83
2021/07/02 03:17:42;;;;;;;29.92;16.98;;;15.20;99.90;;;;;;5090656;28;20535;-83
2021/07/02 03:20:10;;;;;;;30.77;16.35;;;15.20;99.90;;;;;;5091247;28;20027;-84
2021/07/02 03:22:36;;;;;;;25.05;15.50;;;15.20;99.90;;;;;;5090455;28;20066;-86
2021/07/02 03:25:04;;;;;;;28.85;15.55;;;15.20;99.90;;;;;;5091787;28;20051;-86
2021/07/02 03:27:29;;;;;;;26.77;16.23;;;15.20;99.90;;;;;;5090492;28;20058;-86
2021/07/02 03:29:55;;;;;;;27.23;15.88;;;15.20;99.90;;;;;;5089792;28;20024;-85
2021/07/02 03:32:21;;;;;;;30.10;16.33;;;15.20;99.90;;;;;;5091296;28;20055;-86
2021/07/02 03:34:48;;;;;;;27.45;16.10;;;15.20;99.90;;;;;;5091577;28;20051;-86
2021/07/02 03:37:15;;;;;;;29.88;16.38;;;15.20;99.90;;;;;;5090394;28;20020;-85
2021/07/02 03:39:41;;;;;;;30.45;16.63;;;15.10;99.90;;;;;;5091108;28;20384;-85
2021/07/02 03:42:07;;;;;;;25.50;16.17;;;15.10;99.90;;;;;;5091631;28;20249;-85
2021/07/02 03:44:33;;;;;;;29.70;16.70;;;15.10;99.90;;;;;;5091334;28;20058;-85
2021/07/02 03:46:59;;;;;;;31.60;17.08;;;15.00;99.90;;;;;;5090549;28;20051;-86
2021/07/02 03:49:25;;;;;;;35.40;18.50;;;15.00;99.90;;;;;;5091101;28;20024;-85
2021/07/02 03:51:50;;;;;;;29.73;16.65;;;15.00;99.90;;;;;;5091729;28;20476;-85
2021/07/02 03:54:16;;;;;;;29.15;17.85;;;15.00;99.90;;;;;;5093978;28;20024;-86
2021/07/02 03:57:10;;;;;;;27.35;16.80;;;14.90;99.90;;;;;;5095185;28;20157;-85
2021/07/02 03:59:28;;;;;;;35.05;18.73;;;15.00;99.90;;;;;;5094558;28;20546;-86
2021/07/02 04:01:53;;;;;;;34.25;19.40;;;14.90;99.90;;;;;;5093942;28;20020;-85
2021/07/02 04:04:19;;;;;;;34.67;18.58;;;14.90;99.90;;;;;;5093661;28;20074;-85
2021/07/02 04:06:45;;;;;;;37.30;17.15;;;15.00;99.90;;;;;;5093845;28;20022;-85
2021/07/02 04:09:10;;;;;;;32.42;19.17;;;15.00;99.90;;;;;;5093256;28;20023;-85
2021/07/02 04:11:36;;;;;;;32.95;17.75;;;15.00;99.90;;;;;;5094917;28;20431;-83
2021/07/02 04:14:02;;;;;;;32.55;16.80;;;15.00;99.90;;;;;;5093793;28;20020;-83
2021/07/02 04:16:27;;;;;;;30.63;16.80;;;14.90;99.90;;;;;;5093505;28;20028;-83
2021/07/02 04:18:53;;;;;;;31.20;17.73;;;15.00;99.90;;;;;;5094637;28;20020;-83
2021/07/02 04:21:18;;;;;;;29.10;17.02;;;15.00;99.90;;;;;;5094888;28;20495;-83
2021/07/02 04:23:44;;;;;;;28.40;16.17;;;15.00;99.90;;;;;;5093743;28;20017;-83
2021/07/02 04:26:10;;;;;;;33.85;17.65;;;15.10;99.90;;;;;;5093420;28;20115;-86
2021/07/02 04:28:36;;;;;;;29.05;16.60;;;15.10;99.90;;;;;;5093439;28;20024;-86
2021/07/02 04:31:01;;;;;;;29.55;16.88;;;15.00;99.90;;;;;;5092879;28;20073;-85
2021/07/02 04:33:27;;;;;;;32.72;16.77;;;15.00;99.90;;;;;;5094597;28;20047;-86
2021/07/02 04:35:52;;;;;;;26.27;15.48;;;15.10;99.90;;;;;;5093479;28;20020;-85
2021/07/02 04:38:18;;;;;;;29.13;15.98;;;15.00;99.90;;;;;;5093301;28;20047;-86
2021/07/02 04:40:44;;;;;;;26.67;15.55;;;15.00;99.90;;;;;;5093907;28;20024;-86
2021/07/02 04:43:09;;;;;;;31.88;16.17;;;15.00;99.90;;;;;;5093328;28;20031;-85
2021/07/02 04:45:35;;;;;;;27.25;14.02;;;15.00;99.90;;;;;;5094366;28;20392;-86
2021/07/02 04:48:00;;;;;;;27.70;15.68;;;15.00;99.90;;;;;;5094395;28;20081;-85
2021/07/02 04:50:27;;;;;;;28.77;14.63;;;15.00;99.90;;;;;;5092556;28;20081;-86
2021/07/02 04:52:52;;;;;;;28.10;15.57;;;15.00;99.90;;;;;;5094221;28;20016;-85
2021/07/02 04:55:18;;;;;;;27.92;16.27;;;15.00;99.90;;;;;;5092816;28;20135;-85
2021/07/02 04:57:44;;;;;;;27.55;15.70;;;15.00;99.90;;;;;;5093303;28;20023;-84
2021/07/02 05:00:11;;;;;;;26.77;14.70;;;15.00;99.90;;;;;;5094605;28;20111;-85
2021/07/02 05:02:37;;;;;;;25.52;15.50;;;15.00;99.90;;;;;;5093360;28;20392;-85
2021/07/02 05:05:03;;;;;;;28.00;14.35;;;15.00;99.90;;;;;;5092687;28;20032;-85
2021/07/02 05:07:30;;;;;;;29.17;14.98;;;15.00;99.90;;;;;;5092604;28;20024;-86
2021/07/02 05:09:56;;;;;;;24.90;13.77;;;15.00;99.90;;;;;;5092017;28;20118;-86
2021/07/02 05:12:22;;;;;;;27.50;14.55;;;15.10;99.90;;;;;;5093800;28;20021;-85
2021/07/02 05:14:48;;;;;;;25.88;14.90;;;15.10;99.90;;;;;;5093482;28;20035;-85
2021/07/02 05:17:13;;;;;;;27.98;15.15;;;15.10;99.90;;;;;;5092690;28;20056;-85
2021/07/02 05:19:41;;;;;;;25.80;15.05;;;15.10;99.90;;;;;;5085239;22;20125;-84
2021/07/02 05:22:13;;;;;;;28.83;15.43;;;15.20;99.90;;;;;;5033366;28;20180;-84
2021/07/02 05:24:39;;;;;;;32.92;16.05;;;15.20;99.90;;;;;;5033285;28;20026;-83
2021/07/02 05:27:05;;;;;;;27.25;15.85;;;15.20;99.90;;;;;;5033636;28;20500;-84
2021/07/02 05:29:30;;;;;;;34.53;20.83;;;15.20;99.90;;;;;;5032564;28;20084;-84
2021/07/02 05:31:56;;;;;;;30.85;17.20;;;15.20;99.90;;;;;;5033871;28;20022;-87
2021/07/02 05:34:21;;;;;;;26.80;14.27;;;15.30;99.90;;;;;;5032394;28;20071;-84
2021/07/02 05:36:47;;;;;;;26.35;14.75;;;15.30;99.90;;;;;;5034664;28;20018;-84
2021/07/02 05:40:12;;;;;;;24.95;15.65;;;15.30;99.90;;;;;;5035339;28;20064;-84
2021/07/02 05:42:37;;;;;;;28.40;15.70;;;15.40;99.90;;;;;;5035368;28;20028;-84
2021/07/02 05:45:04;;;;;;;30.73;14.30;;;15.30;99.90;;;;;;5032386;28;20025;-84
2021/07/02 05:47:30;;;;;;;21.27;14.50;;;15.40;99.90;;;;;;5033510;28;20037;-84
2021/07/02 05:49:55;;;;;;;29.55;15.57;;;15.50;99.90;;;;;;5032098;28;20029;-85
2021/07/02 05:52:21;;;;;;;24.42;13.88;;;15.40;99.90;;;;;;5033709;28;20029;-84
2021/07/02 05:54:48;;;;;;;27.75;14.55;;;15.40;99.90;;;;;;5033853;28;20071;-85
2021/07/02 05:57:14;;;;;;;25.73;14.43;;;15.50;99.90;;;;;;5040026;28;20089;-85
2021/07/02 05:59:39;;;;;;;29.88;15.00;;;15.50;99.90;;;;;;5042860;28;20045;-84
2021/07/02 06:02:06;;;;;;;22.60;12.68;;;15.50;99.90;;;;;;5037165;28;20018;-84
2021/07/02 06:04:31;;;;;;;24.35;13.48;;;15.50;99.90;;;;;;5032254;28;20022;-84
2021/07/02 06:06:57;;;;;;;23.42;13.52;;;15.50;99.90;;;;;;5032945;28;20018;-85
2021/07/02 06:09:23;;;;;;;24.95;14.30;;;15.50;99.90;;;;;;5031474;28;20021;-84
2021/07/02 06:11:48;;;;;;;25.95;14.45;;;15.60;99.90;;;;;;5031706;28;20025;-84
2021/07/02 06:14:14;;;;;;;24.48;12.57;;;15.60;99.90;;;;;;5032290;28;20048;-85
2021/07/02 06:16:39;;;;;;;28.20;13.95;;;15.60;99.90;;;;;;5031801;28;20021;-84
2021/07/02 06:19:05;;;;;;;25.50;13.15;;;15.70;99.90;;;;;;5032549;28;20383;-85
2021/07/02 06:21:31;;;;;;;27.45;13.20;;;15.70;99.90;;;;;;5031621;28;20028;-84
2021/07/02 06:23:56;;;;;;;26.70;12.52;;;15.80;99.90;;;;;;5031551;28;20108;-85
2021/07/02 06:26:22;;;;;;;25.60;11.82;;;15.80;99.90;;;;;;5031609;28;20026;-84
2021/07/02 06:28:48;;;;;;;24.33;11.88;;;15.80;99.90;;;;;;5031478;28;20492;-85
2021/07/02 06:31:13;;;;;;;25.83;11.65;;;15.90;99.90;;;;;;5031250;28;20075;-88
2021/07/02 06:33:39;;;;;;;19.45;10.48;;;16.00;99.90;;;;;;5032562;28;20021;-84
2021/07/02 06:36:05;;;;;;;23.95;10.63;;;16.10;99.90;;;;;;5032444;28;20025;-84
2021/07/02 06:38:30;;;;;;;20.88;9.60;;;16.20;99.80;;;;;;5031239;28;20022;-85
2021/07/02 06:40:56;;;;;;;45.45;11.82;;;16.20;98.90;;;;;;5031884;28;20018;-85
2021/07/02 06:43:21;;;;;;;50.78;12.75;;;16.30;98.50;;;;;;5031207;28;20018;-86
2021/07/02 06:45:47;;;;;;;20.20;8.82;;;16.40;97.90;;;;;;5032561;28;20442;-84
2021/07/02 06:48:13;;;;;;;15.85;7.82;;;16.40;97.20;;;;;;5032351;28;20143;-85
2021/07/02 06:50:42;;;;;;;18.00;9.20;;;16.50;97.00;;;;;;5030943;28;20478;-84
2021/07/02 06:53:08;;;;;;;19.25;8.57;;;16.50;97.50;;;;;;5032364;28;20482;-85
2021/07/02 06:55:34;;;;;;;14.73;8.23;;;16.50;97.60;;;;;;5030866;28;20041;-85
2021/07/02 06:58:00;;;;;;;18.50;9.48;;;16.50;97.80;;;;;;5031184;28;20087;-85
2021/07/02 07:00:27;;;;;;;18.52;8.93;;;16.50;98.20;;;;;;5030793;28;20386;-84
2021/07/02 07:02:53;;;;;;;17.42;9.98;;;16.60;98.30;;;;;;5030854;28;20026;-85
2021/07/02 07:05:19;;;;;;;15.45;7.80;;;16.60;97.90;;;;;;5031096;28;20386;-85
2021/07/02 07:07:46;;;;;;;41.85;26.70;;;16.60;98.10;;;;;;5032284;28;20389;-85
2021/07/02 07:10:11;;;;;;;31.08;18.60;;;16.70;98.30;;;;;;5030793;28;20025;-85
2021/07/02 07:12:37;;;;;;;19.27;12.57;;;16.70;98.30;;;;;;5031234;28;20036;-85
2021/07/02 07:15:04;;;;;;;22.83;9.00;;;16.70;98.20;;;;;;5030718;28;20055;-85
2021/07/02 07:17:31;;;;;;;23.98;11.45;;;16.80;98.40;;;;;;5030824;28;20021;-88
2021/07/02 07:19:57;;;;;;;19.20;9.60;;;16.80;97.90;;;;;;5030588;28;20036;-86
2021/07/02 07:22:23;;;;;;;14.65;7.63;;;16.80;97.70;;;;;;5032458;28;20369;-87
2021/07/02 07:24:49;;;;;;;15.32;7.93;;;16.80;97.90;;;;;;5031554;28;20079;-85
2021/07/02 07:27:15;;;;;;;15.35;7.50;;;16.90;97.80;;;;;;5032956;28;20033;-85
2021/07/02 07:29:41;;;;;;;15.32;7.30;;;16.90;97.60;;;;;;5034677;28;20029;-87
2021/07/02 07:32:06;;;;;;;15.88;7.82;;;16.90;97.50;;;;;;5034639;28;20025;-84
2021/07/02 07:34:45;;;;;;;12.75;6.82;;;16.90;97.40;;;;;;5034922;28;20506;-85
2021/07/02 07:37:14;;;;;;;14.45;7.60;;;16.90;97.40;;;;;;5034883;28;20075;-87
2021/07/02 07:39:40;;;;;;;14.90;6.78;;;16.90;97.40;;;;;;5034525;28;20025;-85
2021/07/02 07:42:06;;;;;;;12.95;7.13;;;16.90;97.40;;;;;;5035912;28;20029;-85
2021/07/02 07:44:32;;;;;;;17.15;8.70;;;16.90;97.20;;;;;;5034395;28;20028;-85
2021/07/02 07:46:58;;;;;;;14.00;6.95;;;16.80;97.00;;;;;;5034404;28;20022;-85
2021/07/02 07:49:24;;;;;;;13.63;7.30;;;16.80;97.40;;;;;;5034307;28;20033;-85
2021/07/02 07:54:22;;;;;;;15.23;7.95;;;16.80;97.60;;;;;;5035775;28;20029;-85
2021/07/02 07:56:50;;;;;;;17.85;8.82;;;16.80;97.40;;;;;;5034495;28;20072;-85
2021/07/02 07:59:18;;;;;;;15.98;7.93;;;16.80;97.20;;;;;;5035874;28;20026;-85
2021/07/02 08:01:44;;;;;;;18.75;8.23;;;16.90;96.80;;;;;;5035927;28;20087;-85
2021/07/02 08:04:13;;;;;;;14.88;8.63;;;16.90;96.40;;;;;;5034095;28;20021;-85
2021/07/02 08:06:38;;;;;;;13.75;7.63;;;16.90;96.30;;;;;;5034000;28;20104;-84
2021/07/02 08:09:04;;;;;;;13.52;6.90;;;16.90;96.80;;;;;;5033933;28;20132;-85
2021/07/02 08:11:30;;;;;;;12.18;6.15;;;16.90;95.80;;;;;;5033877;28;20029;-86
2021/07/02 08:13:55;;;;;;;13.32;6.85;;;16.90;95.80;;;;;;5034054;28;20121;-85
2021/07/02 08:16:21;;;;;;;12.40;6.60;;;17.00;96.10;;;;;;5035052;28;20078;-85
2021/07/02 08:18:46;;;;;;;9.02;5.28;;;17.00;95.20;;;;;;5033638;28;20040;-85
2021/07/02 08:21:12;;;;;;;10.27;4.90;;;17.00;95.10;;;;;;5033931;28;20021;-85
2021/07/02 08:23:38;;;;;;;8.98;5.22;;;17.10;95.30;;;;;;5033733;28;20397;-85
2021/07/02 08:26:03;;;;;;;10.65;4.90;;;17.20;93.90;;;;;;5033728;28;20036;-85
2021/07/02 08:31:13;;;;;;;14.50;5.47;;;17.10;94.00;;;;;;5035168;28;20437;-85
2021/07/02 08:33:39;;;;;;;11.77;6.32;;;17.10;94.50;;;;;;5033922;28;20026;-85
2021/07/02 08:36:04;;;;;;;16.98;6.85;;;17.20;93.90;;;;;;5033509;28;20025;-85
2021/07/02 08:38:30;;;;;;;21.42;7.20;;;17.30;93.70;;;;;;5034389;28;20095;-86
2021/07/02 08:40:56;;;;;;;11.50;6.25;;;17.40;93.70;;;;;;5034664;28;20033;-84
2021/07/02 08:43:21;;;;;;;9.95;5.63;;;17.40;94.00;;;;;;5034699;28;20030;-85
2021/07/02 08:45:48;;;;;;;12.40;5.60;;;17.30;93.80;;;;;;5033281;28;20034;-85
2021/07/02 08:48:19;;;;;;;14.07;5.95;;;17.30;94.10;;;;;;5033200;28;20087;-84
2021/07/02 08:50:45;;;;;;;13.27;6.25;;;17.20;94.60;;;;;;5033069;28;20037;-86
2021/07/02 08:53:11;;;;;;;10.15;5.35;;;17.30;94.70;;;;;;5034499;28;20108;-87
2021/07/02 08:55:38;;;;;;;10.63;4.80;;;17.30;94.40;;;;;;5033197;28;20140;-85
2021/07/02 08:58:11;;;;;;;12.48;4.47;;;17.30;94.20;;;;;;5033261;28;20032;-85
2021/07/02 09:00:37;;;;;;;10.52;5.22;;;17.40;94.80;;;;;;5033081;28;20022;-86
2021/07/02 09:03:29;;;;;;;17.33;8.13;;;17.50;94.30;;;;;;5032989;28;20021;-85
2021/07/02 09:06:05;;;;;;;13.27;6.45;;;17.50;93.90;;;;;;5033053;28;20458;-85
2021/07/02 09:08:32;;;;;;;14.73;6.35;;;17.60;94.00;;;;;;5032896;28;20112;-85
2021/07/02 09:10:57;;;;;;;10.52;5.28;;;17.80;94.00;;;;;;5034172;28;20029;-85
2021/07/02 09:13:39;;;;;;;12.30;5.63;;;17.90;94.10;;;;;;5032775;28;20393;-86
2021/07/02 09:16:25;;;;;;;13.07;5.20;;;18.00;93.70;;;;;;5033526;28;20083;-84
2021/07/02 09:18:51;;;;;;;14.15;6.07;;;18.10;93.80;;;;;;5033971;28;20029;-85
2021/07/02 09:21:28;;;;;;;10.23;5.57;;;18.10;93.80;;;;;;5032953;28;20090;-84
2021/07/02 09:23:58;;;;;;;10.32;5.93;;;18.20;93.90;;;;;;5032593;28;20383;-85
2021/07/02 09:26:41;;;;;;;12.43;6.07;;;18.20;93.80;;;;;;5032495;28;20029;-85
2021/07/02 09:29:23;;;;;;;15.27;5.63;;;18.20;93.60;;;;;;5032042;28;20222;-87
2021/07/02 09:31:57;;;;;;;11.82;4.95;;;18.20;93.30;;;;;;5033500;28;20025;-87
2021/07/02 09:34:24;;;;;;;7.15;3.83;;;18.20;93.30;;;;;;5032231;28;20021;-87
2021/07/02 09:36:50;;;;;;;8.80;4.60;;;18.20;93.20;;;;;;5032153;28;20450;-87
2021/07/02 09:39:29;;;;;;;9.75;4.50;;;18.20;93.00;;;;;;5031673;28;20108;-88
2021/07/02 09:41:56;;;;;;;10.45;5.00;;;18.30;92.50;;;;;;5032326;28;20053;-87
2021/07/02 09:44:22;;;;;;;9.75;5.30;;;18.40;92.30;;;;;;5032190;28;20049;-87
2021/07/02 09:46:47;;;;;;;11.63;5.18;;;18.40;92.40;;;;;;5032097;28;20371;-87
2021/07/02 09:49:30;;;;;;;10.25;4.97;;;18.30;92.40;;;;;;5030514;28;20034;-87
2021/07/02 09:52:07;;;;;;;9.50;4.93;;;18.20;92.80;;;;;;5031787;28;20101;-87
2021/07/02 09:54:33;;;;;;;12.70;5.60;;;18.20;93.00;;;;;;5031917;28;20394;-87
2021/07/02 09:57:18;;;;;;;11.68;5.55;;;18.20;93.40;;;;;;5033262;28;20033;-87
2021/07/02 10:00:02;;;;;;;11.27;5.50;;;18.30;93.00;;;;;;5032386;28;20028;-87
2021/07/02 10:02:28;;;;;;;10.10;4.80;;;18.30;93.40;;;;;;5031824;28;20057;-88
2021/07/02 10:05:02;;;;;;;9.50;5.07;;;18.30;93.50;;;;;;5033017;28;20061;-87
2021/07/02 10:07:28;;;;;;;12.05;5.40;;;18.40;93.50;;;;;;5031347;28;20029;-87
2021/07/02 10:09:53;;;;;;;9.10;5.10;;;18.50;93.30;;;;;;5031096;28;20092;-87
2021/07/02 10:12:21;;;;;;;14.00;5.97;;;18.60;93.20;;;;;;5031920;28;20032;-87
2021/07/02 10:14:49;;;;;;;13.02;6.55;;;18.60;93.20;;;;;;5032701;28;20032;-87
2021/07/02 10:17:19;;;;;;;12.23;5.55;;;18.70;93.40;;;;;;5031606;28;20032;-87
2021/07/02 10:19:46;;;;;;;12.50;5.70;;;18.70;93.50;;;;;;5030532;28;20041;-87
2021/07/02 10:22:18;;;;;;;14.80;6.47;;;18.80;93.20;;;;;;5032564;28;20021;-87
2021/07/02 10:24:46;;;;;;;9.63;5.72;;;18.80;92.90;;;;;;5031419;28;20459;-87
2021/07/02 10:27:12;;;;;;;13.07;5.68;;;18.80;93.10;;;;;;5031098;28;20474;-87
2021/07/02 10:29:38;;;;;;;9.57;5.40;;;18.80;93.40;;;;;;5031816;28;20070;-87
2021/07/02 10:32:04;;;;;;;9.10;5.03;;;18.90;92.50;;;;;;5032624;28;20032;-87
2021/07/02 10:34:30;;;;;;;9.50;5.18;;;18.90;92.80;;;;;;5033124;28;20025;-87
2021/07/02 10:37:00;;;;;;;9.52;5.43;;;18.90;93.10;;;;;;5031319;28;20534;-88
2021/07/02 10:39:30;;;;;;;10.70;5.90;;;19.00;92.80;;;;;;5030255;28;20040;-87
2021/07/02 10:42:06;;;;;;;10.27;5.13;;;19.10;92.20;;;;;;5030965;28;20033;-87
2021/07/02 10:44:32;;;;;;;12.35;5.45;;;19.10;91.60;;;;;;5031006;28;20060;-87
2021/07/02 10:46:57;;;;;;;12.63;5.97;;;19.20;91.70;;;;;;5032265;28;20025;-87
2021/07/02 10:49:35;;;;;;;9.00;4.75;;;19.20;91.50;;;;;;5031743;28;20466;-87
2021/07/02 10:52:18;;;;;;;10.38;4.80;;;19.20;92.10;;;;;;5030706;28;20052;-87
2021/07/02 10:54:44;;;;;;;9.88;4.57;;;19.20;91.70;;;;;;5032107;28;20048;-87
2021/07/02 10:57:12;;;;;;;9.48;4.22;;;19.30;91.10;;;;;;5032640;28;20049;-87
2021/07/02 10:59:38;;;;;;;10.48;5.03;;;19.30;90.60;;;;;;5030358;28;20470;-87
2021/07/02 11:02:06;;;;;;;9.55;4.78;;;19.40;90.50;;;;;;5031514;28;20033;-87
2021/07/02 11:04:39;;;;;;;8.75;4.75;;;19.40;90.80;;;;;;5039025;28;20048;-87
2021/07/02 11:07:08;;;;;;;9.30;4.93;;;19.40;91.30;;;;;;5039822;28;20032;-87
2021/07/02 11:09:52;;;;;;;11.32;5.82;;;19.50;90.80;;;;;;5038893;28;20089;-87
2021/07/02 11:12:22;;;;;;;11.48;5.45;;;19.60;90.60;;;;;;5040704;28;20026;-87
2021/07/02 11:14:57;;;;;;;14.70;7.20;;;19.60;90.40;;;;;;5039641;28;20021;-87
2021/07/02 11:17:30;;;;;;;12.48;6.20;;;19.60;90.80;;;;;;5035753;28;20017;-87
2021/07/02 11:20:11;;;;;;;11.32;6.25;;;19.60;90.60;;;;;;5073887;22;20106;-86
2021/07/02 11:22:47;;;;;;;10.88;5.80;;;19.60;90.90;;;;;;5087378;28;20024;-86
2021/07/02 11:25:25;;;;;;;12.48;6.63;;;19.60;90.50;;;;;;5072061;28;20036;-86
2021/07/02 11:27:52;;;;;;;13.77;6.60;;;19.70;90.40;;;;;;5071927;28;20020;-86
2021/07/02 11:30:34;;;;;;;13.20;6.78;;;19.70;90.70;;;;;;5086865;28;20025;-86
2021/07/02 11:33:02;;;;;;;12.55;6.90;;;19.70;91.30;;;;;;5087332;28;20035;-86
2021/07/02 11:35:30;;;;;;;12.85;7.55;;;19.70;91.10;;;;;;5070453;28;20130;-86
2021/07/02 11:37:59;;;;;;;10.77;6.65;;;19.70;91.20;;;;;;5071761;28;20029;-86
2021/07/02 11:40:29;;;;;;;14.25;8.43;;;19.70;91.20;;;;;;5086809;28;20025;-86
2021/07/02 11:42:56;;;;;;;14.43;8.10;;;19.70;91.40;;;;;;5071595;28;20025;-86
2021/07/02 11:45:40;;;;;;;14.80;8.25;;;19.70;91.70;;;;;;5070497;28;20024;-86
2021/07/02 11:48:09;;;;;;;17.73;8.68;;;19.80;91.90;;;;;;5087022;28;20056;-86
2021/07/02 11:50:42;;;;;;;17.58;8.73;;;19.90;91.80;;;;;;5069951;28;20113;-86
2021/07/02 11:53:25;;;;;;;17.08;10.65;;;19.90;91.60;;;;;;5071579;28;20033;-86
2021/07/02 11:55:59;;;;;;;18.50;10.40;;;20.00;91.60;;;;;;5071931;28;20048;-86
2021/07/02 11:58:36;;;;;;;17.90;9.82;;;20.00;91.60;;;;;;5070457;28;20099;-86
2021/07/02 12:01:06;;;;;;;17.90;10.25;;;20.10;91.80;;;;;;5087042;28;20020;-85
2021/07/02 12:03:31;;;;;;;17.48;10.23;;;20.00;91.70;;;;;;5071824;28;20100;-85
2021/07/02 12:06:02;;;;;;;15.98;10.13;;;20.10;91.20;;;;;;5071544;28;20099;-86
2021/07/02 12:08:30;;;;;;;19.23;11.00;;;20.10;91.20;;;;;;5070376;28;20021;-86
2021/07/02 12:10:57;;;;;;;15.80;10.95;;;20.00;91.40;;;;;;5069742;28;20063;-86
2021/07/02 12:13:23;;;;;;;18.10;10.25;;;20.10;91.50;;;;;;5072195;28;20028;-86
2021/07/02 12:16:12;;;;;;;17.77;9.98;;;20.20;91.10;;;;;;5074737;28;20047;-86
2021/07/02 12:18:39;;;;;;;16.08;10.23;;;20.20;91.70;;;;;;5067886;28;20035;-86
2021/07/02 12:21:08;;;;;;;13.05;8.60;;;20.30;91.40;;;;;;5072985;28;20040;-86
2021/07/02 12:23:39;;;;;;;17.75;9.05;;;20.40;91.30;;;;;;5074689;28;20103;-86
2021/07/02 12:26:12;;;;;;;17.33;9.25;;;20.50;90.60;;;;;;5073605;28;20067;-87
2021/07/02 12:29:04;;;;;;;17.33;10.25;;;20.50;91.20;;;;;;5073371;28;20507;-86
2021/07/02 12:31:35;;;;;;;15.95;8.05;;;20.60;91.60;;;;;;5074851;28;20416;-86
2021/07/02 12:34:02;;;;;;;15.32;8.10;;;20.60;91.50;;;;;;5074531;28;20393;-87
2021/07/02 12:36:29;;;;;;;12.70;8.02;;;20.70;90.80;;;;;;5073138;28;20032;-86
2021/07/02 12:39:06;;;;;;;13.27;7.30;;;20.80;90.50;;;;;;5074003;28;20029;-86
2021/07/02 12:41:46;;;;;;;14.27;8.32;;;20.90;89.50;;;;;;5073105;28;20429;-86